createdAt,value
2023-01-19T00:00:56.387Z,42.10
2023-01-19T00:03:23.330Z,42.00
2023-01-19T00:05:50.309Z,42.00
2023-01-19T00:08:17.864Z,42.00
2023-01-19T00:10:48.514Z,42.00
2023-01-19T00:13:15.621Z,42.00
2023-01-19T00:15:42.712Z,42.00
2023-01-19T00:18:10.892Z,41.90
2023-01-19T00:20:39.092Z,42.00
2023-01-19T00:23:07.762Z,41.90
2023-01-19T00:25:34.720Z,41.90
2023-01-19T00:28:02.014Z,41.90
2023-01-19T00:30:29.155Z,42.50
2023-01-19T00:32:56.168Z,41.90
2023-01-19T00:35:23.143Z,41.90
2023-01-19T00:37:50.417Z,41.90
2023-01-19T00:40:17.853Z,41.90
2023-01-19T00:42:44.945Z,41.90
2023-01-19T00:45:13.073Z,41.90
2023-01-19T00:47:40.135Z,42.00
2023-01-19T00:50:07.993Z,41.90
2023-01-19T00:52:34.917Z,41.90
2023-01-19T00:55:01.906Z,41.90
2023-01-19T00:57:29.739Z,41.90
2023-01-19T00:59:56.682Z,41.90
2023-01-19T01:02:23.951Z,41.90
2023-01-19T01:04:55.023Z,41.90
2023-01-19T01:07:22.645Z,41.90
2023-01-19T01:09:49.605Z,41.90
2023-01-19T01:12:16.745Z,41.90
2023-01-19T01:14:43.762Z,41.90
2023-01-19T01:17:11.771Z,41.90
2023-01-19T01:19:38.807Z,41.90
2023-01-19T01:22:05.952Z,41.90
2023-01-19T01:24:32.933Z,41.90
2023-01-19T01:26:59.841Z,41.90
2023-01-19T01:29:26.836Z,41.90
2023-01-19T01:31:53.807Z,41.90
2023-01-19T01:34:20.753Z,41.90
2023-01-19T01:36:47.725Z,41.90
2023-01-19T01:39:14.705Z,41.90
2023-01-19T01:41:41.613Z,41.90
2023-01-19T01:44:29.660Z,41.90
2023-01-19T01:46:56.988Z,41.90
2023-01-19T01:49:23.950Z,41.80
2023-01-19T01:51:53.251Z,41.80
2023-01-19T01:54:23.382Z,41.90
2023-01-19T01:56:52.699Z,41.90
2023-01-19T01:59:29.655Z,41.90
2023-01-19T02:02:17.989Z,41.80
2023-01-19T02:04:50.883Z,41.90
2023-01-19T02:07:41.235Z,41.90
2023-01-19T02:10:28.309Z,41.80
2023-01-19T02:13:15.587Z,41.80
2023-01-19T02:15:42.542Z,41.80
2023-01-19T02:18:09.499Z,41.80
2023-01-19T02:20:37.746Z,41.80
2023-01-19T02:23:07.421Z,41.80
2023-01-19T02:25:34.580Z,41.80
2023-01-19T02:28:01.619Z,41.80
2023-01-19T02:30:28.905Z,41.80
2023-01-19T02:32:55.865Z,41.80
2023-01-19T02:35:23.454Z,41.80
2023-01-19T02:37:51.078Z,41.80
2023-01-19T02:40:22.397Z,41.80
2023-01-19T02:42:50.433Z,41.80
2023-01-19T02:45:20.357Z,41.80
2023-01-19T02:47:49.366Z,41.80
2023-01-19T02:50:39.193Z,41.80
2023-01-19T02:53:25.954Z,41.80
2023-01-19T02:55:56.800Z,41.80
2023-01-19T02:58:30.912Z,41.80
2023-01-19T03:01:05.002Z,41.80
2023-01-19T03:03:51.074Z,41.80
2023-01-19T03:06:37.841Z,41.80
2023-01-19T03:09:10.669Z,41.80
2023-01-19T03:11:39.964Z,41.80
2023-01-19T03:14:12.840Z,41.80
2023-01-19T03:16:43.028Z,41.80
2023-01-19T03:19:19.857Z,41.80
2023-01-19T03:21:48.207Z,41.80
2023-01-19T03:24:17.304Z,41.90
2023-01-19T03:26:45.893Z,41.80
2023-01-19T03:29:14.160Z,41.80
2023-01-19T03:31:44.034Z,42.00
2023-01-19T03:34:12.099Z,41.80
2023-01-19T03:36:51.714Z,41.80
2023-01-19T03:39:21.937Z,41.80
2023-01-19T03:41:50.317Z,41.90
2023-01-19T03:44:17.331Z,41.80
2023-01-19T03:46:46.202Z,41.80
2023-01-19T03:49:13.214Z,41.80
2023-01-19T03:51:40.374Z,41.80
2023-01-19T03:54:07.691Z,41.80
2023-01-19T03:56:34.649Z,41.80
2023-01-19T03:59:01.544Z,41.80
2023-01-19T04:01:28.722Z,41.80
2023-01-19T04:03:55.761Z,41.80
2023-01-19T04:06:23.193Z,41.80
2023-01-19T04:08:50.914Z,41.80
2023-01-19T04:11:18.340Z,41.70
2023-01-19T04:13:45.306Z,41.80
2023-01-19T04:16:12.717Z,41.70
2023-01-19T04:18:40.723Z,41.80
2023-01-19T04:21:08.405Z,41.70
2023-01-19T04:23:35.455Z,41.70
2023-01-19T04:26:04.062Z,41.70
2023-01-19T04:28:31.563Z,41.70
2023-01-19T04:30:58.597Z,41.70
2023-01-19T04:33:25.846Z,41.70
2023-01-19T04:35:54.432Z,41.70
2023-01-19T04:38:21.662Z,41.70
2023-01-19T04:40:49.288Z,41.70
2023-01-19T04:43:16.447Z,41.60
2023-01-19T04:45:45.021Z,41.60
2023-01-19T04:48:12.615Z,41.70
2023-01-19T04:50:39.670Z,41.60
2023-01-19T04:53:06.605Z,41.60
2023-01-19T04:55:33.577Z,41.60
2023-01-19T04:58:00.875Z,41.60
2023-01-19T05:00:27.931Z,41.60
2023-01-19T05:02:54.938Z,41.60
2023-01-19T05:05:22.063Z,41.60
2023-01-19T05:07:49.009Z,41.60
2023-01-19T05:10:16.180Z,41.60
2023-01-19T05:12:43.131Z,41.50
2023-01-19T05:15:10.236Z,41.50
2023-01-19T05:17:37.294Z,41.50
2023-01-19T05:20:04.602Z,41.50
2023-01-19T05:22:31.786Z,41.40
2023-01-19T05:24:58.840Z,41.50
2023-01-19T05:27:25.812Z,41.50
2023-01-19T05:29:52.793Z,41.40
2023-01-19T05:32:19.731Z,41.40
2023-01-19T05:34:46.665Z,41.40
2023-01-19T05:37:14.111Z,41.40
2023-01-19T05:39:41.091Z,41.30
2023-01-19T05:42:08.012Z,41.10
2023-01-19T05:44:34.911Z,41.00
2023-01-19T05:47:01.928Z,41.00
2023-01-19T05:49:28.913Z,41.00
2023-01-19T05:51:55.882Z,41.00
2023-01-19T05:54:22.929Z,41.00
2023-01-19T05:56:49.872Z,40.90
2023-01-19T05:59:24.062Z,40.90
2023-01-19T06:01:51.837Z,41.00
2023-01-19T06:04:20.002Z,40.90
2023-01-19T06:06:50.393Z,40.80
2023-01-19T06:09:17.806Z,40.70
2023-01-19T06:11:45.865Z,40.80
2023-01-19T06:14:13.019Z,40.80
2023-01-19T06:16:40.033Z,40.80
2023-01-19T06:19:07.639Z,40.80
2023-01-19T06:21:34.575Z,40.80
2023-01-19T06:24:01.540Z,40.80
2023-01-19T06:26:28.495Z,40.70
2023-01-19T06:28:55.733Z,40.70
2023-01-19T06:31:22.928Z,40.60
2023-01-19T06:33:50.330Z,40.60
2023-01-19T06:36:17.251Z,41.10
2023-01-19T06:38:44.429Z,40.50
2023-01-19T06:41:11.394Z,40.50
2023-01-19T06:43:39.085Z,40.40
2023-01-19T06:46:06.141Z,40.30
2023-01-19T06:48:33.060Z,40.30
2023-01-19T06:51:00.121Z,40.30
2023-01-19T06:53:28.540Z,40.20
2023-01-19T06:56:01.362Z,40.70
2023-01-19T06:58:29.243Z,41.00
2023-01-19T07:00:56.478Z,41.00
2023-01-19T07:03:23.704Z,41.00
2023-01-19T07:05:54.048Z,41.20
2023-01-19T07:08:21.011Z,41.40
2023-01-19T07:11:25.246Z,41.40
2023-01-19T07:13:35.654Z,41.50
2023-01-19T07:16:07.249Z,41.40
2023-01-19T07:18:34.456Z,41.20
2023-01-19T07:21:01.725Z,40.90
2023-01-19T07:23:30.489Z,40.70
2023-01-19T07:25:58.107Z,40.60
2023-01-19T07:28:25.231Z,40.60
2023-01-19T07:30:53.254Z,40.50
2023-01-19T07:33:22.678Z,40.40
2023-01-19T07:35:49.826Z,40.40
2023-01-19T07:38:18.174Z,40.40
2023-01-19T07:40:47.204Z,40.50
2023-01-19T07:43:14.565Z,40.70
2023-01-19T07:45:41.856Z,40.80
2023-01-19T07:48:08.871Z,41.00
2023-01-19T07:50:36.030Z,40.90
2023-01-19T07:53:06.960Z,40.70
2023-01-19T07:55:33.917Z,40.80
2023-01-19T07:58:01.012Z,41.00
2023-01-19T08:00:28.018Z,41.10
2023-01-19T08:02:59.619Z,41.10
2023-01-19T08:05:29.184Z,41.10
2023-01-19T08:08:00.583Z,41.70
2023-01-19T08:10:28.420Z,41.00
2023-01-19T08:12:56.148Z,41.10
2023-01-19T08:15:24.878Z,41.10
2023-01-19T08:17:59.822Z,40.80
2023-01-19T08:20:27.741Z,40.40
2023-01-19T08:23:00.378Z,40.10
2023-01-19T08:25:32.588Z,40.10
2023-01-19T08:28:00.019Z,39.90
2023-01-19T08:30:27.138Z,39.80
2023-01-19T08:32:54.831Z,39.80
2023-01-19T08:35:22.725Z,39.70
2023-01-19T08:37:49.922Z,39.70
2023-01-19T08:40:18.433Z,39.70
2023-01-19T08:42:45.931Z,39.70
2023-01-19T08:45:12.890Z,39.70
2023-01-19T08:47:39.799Z,39.60
2023-01-19T08:50:07.094Z,39.60
2023-01-19T08:52:34.034Z,39.50
2023-01-19T08:55:01.742Z,39.50
2023-01-19T08:57:28.798Z,39.50
2023-01-19T08:59:55.795Z,39.40
2023-01-19T09:02:22.842Z,39.90
2023-01-19T09:04:50.043Z,39.30
2023-01-19T09:07:18.586Z,39.30
2023-01-19T09:09:45.513Z,39.20
2023-01-19T09:12:12.514Z,39.30
2023-01-19T09:14:39.493Z,39.30
2023-01-19T09:17:06.604Z,39.30
2023-01-19T09:19:35.142Z,39.20
2023-01-19T09:22:02.293Z,39.10
2023-01-19T09:24:29.323Z,39.00
2023-01-19T09:26:56.571Z,38.90
2023-01-19T09:29:23.532Z,38.90
2023-01-19T09:31:51.388Z,38.90
2023-01-19T09:34:18.386Z,38.90
2023-01-19T09:36:46.884Z,39.40
2023-01-19T09:39:13.943Z,39.00
2023-01-19T09:41:44.883Z,39.00
2023-01-19T09:44:16.687Z,39.10
2023-01-19T09:46:43.676Z,39.00
2023-01-19T09:49:13.954Z,39.00
2023-01-19T09:51:43.925Z,39.00
2023-01-19T09:54:16.082Z,39.00
2023-01-19T09:56:43.967Z,38.90
2023-01-19T09:59:25.687Z,38.40
2023-01-19T10:02:06.443Z,38.80
2023-01-19T10:04:44.328Z,39.00
2023-01-19T10:07:16.300Z,38.80
2023-01-19T10:10:02.590Z,38.80
2023-01-19T10:12:51.273Z,38.70
2023-01-19T10:15:37.954Z,38.70
2023-01-19T10:18:23.287Z,38.60
2023-01-19T10:20:52.743Z,38.60
2023-01-19T10:23:38.694Z,38.50
2023-01-19T10:26:08.642Z,38.40
2023-01-19T10:28:36.592Z,38.40
2023-01-19T10:31:06.444Z,38.20
2023-01-19T10:33:35.504Z,38.20
2023-01-19T10:36:06.555Z,38.10
2023-01-19T10:38:34.797Z,38.20
2023-01-19T10:41:05.274Z,38.10
2023-01-19T10:43:37.637Z,38.10
2023-01-19T10:46:14.479Z,38.10
2023-01-19T10:48:42.223Z,38.10
2023-01-19T10:51:10.401Z,38.30
2023-01-19T10:53:38.573Z,38.30
2023-01-19T10:56:14.753Z,38.10
2023-01-19T10:58:41.828Z,38.10
2023-01-19T11:01:17.083Z,38.30
2023-01-19T11:03:44.604Z,38.00
2023-01-19T11:06:19.692Z,38.00
2023-01-19T11:08:47.677Z,37.90
2023-01-19T11:11:14.748Z,37.90
2023-01-19T11:13:42.887Z,37.80
2023-01-19T11:16:26.009Z,37.90
2023-01-19T11:18:54.296Z,37.80
2023-01-19T11:21:28.845Z,37.70
2023-01-19T11:23:57.893Z,37.70
2023-01-19T11:26:28.463Z,37.60
2023-01-19T11:28:56.622Z,37.60
2023-01-19T11:31:33.396Z,37.60
2023-01-19T11:34:02.683Z,37.50
2023-01-19T11:36:32.038Z,37.50
2023-01-19T11:39:16.200Z,37.50
2023-01-19T11:41:43.680Z,37.50
2023-01-19T11:44:26.993Z,37.50
2023-01-19T11:46:56.451Z,37.60
2023-01-19T11:49:30.322Z,37.50
2023-01-19T11:52:04.948Z,37.50
2023-01-19T11:54:37.149Z,37.60
2023-01-19T11:57:07.741Z,37.60
2023-01-19T11:59:34.701Z,37.60
2023-01-19T12:02:02.606Z,37.70
2023-01-19T12:04:35.506Z,37.70
2023-01-19T12:07:09.131Z,37.70
2023-01-19T12:09:42.905Z,38.00
2023-01-19T12:12:17.411Z,37.80
2023-01-19T12:14:54.935Z,37.80
2023-01-19T12:17:26.664Z,37.70
2023-01-19T12:20:01.241Z,37.70
2023-01-19T12:22:29.403Z,37.80
2023-01-19T12:25:00.793Z,37.80
2023-01-19T12:27:37.968Z,37.80
2023-01-19T12:30:05.742Z,37.70
2023-01-19T12:32:33.948Z,37.80
2023-01-19T12:35:01.865Z,37.70
2023-01-19T12:37:32.911Z,37.70
2023-01-19T12:40:01.120Z,37.60
2023-01-19T12:42:28.571Z,37.70
2023-01-19T12:45:10.940Z,37.60
2023-01-19T12:47:37.923Z,37.50
2023-01-19T12:50:07.240Z,37.50
2023-01-19T12:52:51.728Z,37.40
2023-01-19T12:55:28.030Z,37.40
2023-01-19T12:58:01.900Z,37.30
2023-01-19T13:00:31.158Z,37.30
2023-01-19T13:02:59.021Z,37.30
2023-01-19T13:05:47.686Z,37.30
2023-01-19T13:08:16.070Z,37.30
2023-01-19T13:11:02.924Z,37.30
2023-01-19T13:13:33.850Z,37.30
2023-01-19T13:16:21.553Z,37.30
2023-01-19T13:18:50.807Z,37.20
2023-01-19T13:21:32.308Z,37.20
2023-01-19T13:24:02.053Z,37.60
2023-01-19T13:26:34.976Z,38.10
2023-01-19T13:29:08.241Z,38.20
2023-01-19T13:31:39.999Z,38.20
2023-01-19T13:34:25.037Z,38.20
2023-01-19T13:36:53.663Z,38.20
2023-01-19T13:39:25.909Z,38.20
2023-01-19T13:41:54.410Z,38.20
2023-01-19T13:44:26.431Z,38.20
2023-01-19T13:46:55.163Z,38.20
2023-01-19T13:49:40.596Z,38.10
2023-01-19T13:52:25.230Z,37.70
2023-01-19T13:54:53.689Z,37.40
2023-01-19T13:57:25.700Z,37.30
2023-01-19T14:00:12.893Z,37.30
2023-01-19T14:02:53.758Z,37.20
2023-01-19T14:05:25.842Z,37.20
2023-01-19T14:08:01.474Z,37.20
2023-01-19T14:10:28.922Z,37.20
2023-01-19T14:13:00.259Z,37.20
2023-01-19T14:15:27.911Z,37.20
2023-01-19T14:18:10.297Z,37.10
2023-01-19T14:20:37.646Z,37.10
2023-01-19T14:23:04.937Z,37.10
2023-01-19T14:25:36.086Z,37.10
2023-01-19T14:28:22.950Z,37.00
2023-01-19T14:30:58.210Z,36.90
2023-01-19T14:33:36.861Z,36.90
2023-01-19T14:36:11.471Z,36.90
2023-01-19T14:38:43.891Z,37.00
2023-01-19T14:41:11.275Z,36.90
2023-01-19T14:43:43.609Z,37.00
2023-01-19T14:46:20.784Z,37.00
2023-01-19T14:48:48.734Z,37.00
2023-01-19T14:51:18.327Z,37.00
2023-01-19T14:53:51.541Z,37.00
2023-01-19T14:56:26.091Z,37.00
2023-01-19T14:58:53.454Z,37.10
2023-01-19T15:01:20.546Z,37.10
2023-01-19T15:03:47.620Z,37.10
2023-01-19T15:06:16.062Z,37.30
2023-01-19T15:08:43.981Z,37.50
2023-01-19T15:11:23.000Z,37.60
2023-01-19T15:13:50.495Z,37.70
2023-01-19T15:16:17.992Z,37.80
2023-01-19T15:18:45.030Z,37.80
2023-01-19T15:21:15.417Z,38.00
2023-01-19T15:23:42.365Z,38.10
2023-01-19T15:26:12.822Z,38.20
2023-01-19T15:28:40.796Z,38.40
2023-01-19T15:31:07.890Z,38.50
2023-01-19T15:33:34.895Z,38.70
2023-01-19T15:36:01.952Z,38.70
2023-01-19T15:38:28.974Z,38.90
2023-01-19T15:40:55.911Z,39.00
2023-01-19T15:43:22.958Z,39.10
2023-01-19T15:45:51.718Z,39.20
2023-01-19T15:48:20.143Z,39.40
2023-01-19T15:50:47.944Z,39.30
2023-01-19T15:53:16.629Z,39.40
2023-01-19T15:55:44.049Z,39.50
2023-01-19T15:58:13.850Z,39.60
2023-01-19T16:00:41.214Z,39.70
2023-01-19T16:03:08.351Z,39.80
2023-01-19T16:05:43.882Z,39.90
2023-01-19T16:08:11.441Z,40.00
2023-01-19T16:10:38.416Z,40.30
2023-01-19T16:13:05.413Z,40.50
2023-01-19T16:15:34.807Z,40.70
2023-01-19T16:18:01.901Z,40.90
2023-01-19T16:20:28.921Z,41.20
2023-01-19T16:23:00.672Z,41.40
2023-01-19T16:25:33.152Z,41.70
2023-01-19T16:28:00.159Z,41.80
2023-01-19T16:30:27.094Z,41.90
2023-01-19T16:32:54.016Z,42.00
2023-01-19T16:35:20.973Z,42.10
2023-01-19T16:37:51.816Z,42.20
2023-01-19T16:40:20.455Z,42.20
2023-01-19T16:42:47.550Z,42.30
2023-01-19T16:45:14.546Z,42.40
2023-01-19T16:47:41.473Z,42.50
2023-01-19T16:50:10.917Z,42.60
2023-01-19T16:52:38.143Z,42.70
2023-01-19T16:55:09.061Z,42.90
2023-01-19T16:57:37.079Z,43.00
2023-01-19T17:00:04.652Z,43.30
2023-01-19T17:02:31.696Z,43.80
2023-01-19T17:05:00.421Z,44.10
2023-01-19T17:07:28.036Z,44.40
2023-01-19T17:09:55.058Z,44.30
2023-01-19T17:12:22.277Z,44.10
2023-01-19T17:14:49.304Z,43.80
2023-01-19T17:17:16.267Z,43.50
2023-01-19T17:19:45.198Z,43.30
2023-01-19T17:22:13.123Z,43.10
2023-01-19T17:24:42.612Z,42.90
2023-01-19T17:27:09.816Z,42.70
2023-01-19T17:29:36.774Z,42.50
2023-01-19T17:32:03.982Z,42.40
2023-01-19T17:34:30.985Z,42.30
2023-01-19T17:37:03.165Z,42.30
2023-01-19T17:39:30.357Z,42.30
2023-01-19T17:41:57.399Z,42.30
2023-01-19T17:44:24.338Z,42.30
2023-01-19T17:46:54.245Z,42.30
2023-01-19T17:49:21.167Z,42.40
2023-01-19T17:51:52.014Z,42.40
2023-01-19T17:54:18.990Z,42.40
2023-01-19T17:56:45.976Z,42.40
2023-01-19T17:59:13.063Z,42.40
2023-01-19T18:01:40.709Z,42.40
2023-01-19T18:04:08.541Z,42.40
2023-01-19T18:06:36.148Z,42.40
2023-01-19T18:09:03.252Z,42.40
2023-01-19T18:11:30.213Z,42.40
2023-01-19T18:13:57.267Z,42.40
2023-01-19T18:16:25.582Z,42.40
2023-01-19T18:18:56.143Z,42.40
2023-01-19T18:21:23.586Z,42.40
2023-01-19T18:23:51.230Z,42.50
2023-01-19T18:26:22.213Z,42.60
2023-01-19T18:28:49.735Z,42.80
2023-01-19T18:31:18.616Z,42.80
2023-01-19T18:33:46.997Z,42.90
2023-01-19T18:36:13.917Z,43.00
2023-01-19T18:38:41.232Z,43.00
2023-01-19T18:41:10.584Z,43.00
2023-01-19T18:43:37.798Z,43.00
2023-01-19T18:46:04.955Z,43.00
2023-01-19T18:48:31.955Z,43.00
2023-01-19T18:51:03.429Z,43.00
2023-01-19T18:53:31.237Z,42.90
2023-01-19T18:55:59.050Z,42.80
2023-01-19T18:58:28.731Z,42.70
2023-01-19T19:00:56.295Z,42.70
2023-01-19T19:03:23.446Z,42.60
2023-01-19T19:05:50.443Z,42.60
2023-01-19T19:08:20.435Z,42.50
2023-01-19T19:10:47.638Z,42.50
2023-01-19T19:13:15.365Z,42.40
2023-01-19T19:15:44.454Z,42.30
2023-01-19T19:18:14.188Z,42.20
2023-01-19T19:20:42.283Z,42.20
2023-01-19T19:23:10.490Z,42.10
2023-01-19T19:25:37.492Z,42.00
2023-01-19T19:28:04.932Z,42.00
2023-01-19T19:30:34.524Z,41.90
2023-01-19T19:33:01.717Z,41.80
2023-01-19T19:35:28.726Z,41.80
2023-01-19T19:37:57.851Z,41.80
2023-01-19T19:40:25.833Z,41.70
2023-01-19T19:43:07.902Z,41.70
2023-01-19T19:45:34.919Z,41.70
2023-01-19T19:48:01.880Z,41.60
2023-01-19T19:50:28.813Z,41.60
2023-01-19T19:52:58.860Z,41.50
2023-01-19T19:55:26.006Z,41.50
2023-01-19T19:57:53.311Z,41.40
2023-01-19T20:00:20.507Z,41.40
2023-01-19T20:02:50.340Z,41.40
2023-01-19T20:05:17.318Z,41.30
2023-01-19T20:07:47.256Z,41.90
2023-01-19T20:10:14.454Z,41.30
2023-01-19T20:12:41.534Z,41.20
2023-01-19T20:15:08.817Z,41.20
2023-01-19T20:17:35.856Z,41.20
2023-01-19T20:20:04.567Z,41.20
2023-01-19T20:22:32.951Z,41.10
2023-01-19T20:24:59.862Z,41.10
2023-01-19T20:27:26.765Z,41.10
2023-01-19T20:29:58.136Z,41.10
2023-01-19T20:32:25.266Z,41.10
2023-01-19T20:34:52.264Z,41.10
2023-01-19T20:37:19.193Z,41.00
2023-01-19T20:39:46.145Z,41.00
2023-01-19T20:42:15.775Z,41.00
2023-01-19T20:44:42.947Z,41.00
2023-01-19T20:47:10.049Z,41.00
2023-01-19T20:49:37.099Z,40.90
2023-01-19T20:52:04.055Z,40.80
2023-01-19T20:54:31.078Z,40.80
2023-01-19T20:56:58.088Z,40.80
2023-01-19T20:59:25.074Z,40.80
2023-01-19T21:01:52.527Z,40.80
2023-01-19T21:04:19.704Z,40.80
2023-01-19T21:06:46.661Z,40.70
2023-01-19T21:09:13.609Z,40.70
2023-01-19T21:11:40.640Z,40.70
2023-01-19T21:14:07.780Z,40.70
2023-01-19T21:16:35.823Z,40.60
2023-01-19T21:19:03.317Z,40.60
2023-01-19T21:21:31.639Z,40.50
2023-01-19T21:24:00.041Z,40.50
2023-01-19T21:26:29.928Z,40.50
2023-01-19T21:28:58.328Z,40.50
2023-01-19T21:31:27.523Z,40.50
2023-01-19T21:33:54.983Z,40.50
2023-01-19T21:36:22.647Z,40.50
2023-01-19T21:38:51.580Z,40.40
2023-01-19T21:41:18.802Z,40.40
2023-01-19T21:43:46.426Z,40.40
2023-01-19T21:46:16.605Z,40.40
2023-01-19T21:48:43.631Z,40.40
2023-01-19T21:51:10.675Z,40.40
2023-01-19T21:53:37.722Z,40.30
2023-01-19T21:56:08.514Z,40.30
2023-01-19T21:58:35.679Z,40.30
2023-01-19T22:01:04.995Z,40.30
2023-01-19T22:03:32.122Z,40.30
2023-01-19T22:06:06.129Z,40.30
2023-01-19T22:08:33.311Z,40.30
2023-01-19T22:11:05.247Z,40.30
2023-01-19T22:13:32.862Z,40.20
2023-01-19T22:16:00.937Z,40.20
2023-01-19T22:18:27.900Z,40.20
2023-01-19T22:20:54.956Z,40.20
2023-01-19T22:23:21.923Z,40.20
2023-01-19T22:25:48.905Z,40.20
2023-01-19T22:28:15.837Z,40.10
2023-01-19T22:30:43.026Z,40.10
2023-01-19T22:33:10.118Z,40.10
2023-01-19T22:35:37.062Z,40.70
2023-01-19T22:38:04.009Z,40.10
2023-01-19T22:40:30.940Z,40.10
2023-01-19T22:42:57.943Z,40.10
2023-01-19T22:45:24.909Z,40.20
2023-01-19T22:47:51.884Z,40.10
2023-01-19T22:50:19.241Z,40.10
2023-01-19T22:52:46.192Z,40.10
2023-01-19T22:55:13.407Z,40.10
2023-01-19T22:57:40.531Z,40.00
2023-01-19T23:00:10.607Z,40.00
2023-01-19T23:02:37.615Z,40.00
2023-01-19T23:05:07.598Z,39.90
2023-01-19T23:07:34.726Z,39.90
2023-01-19T23:10:01.681Z,39.80
2023-01-19T23:12:28.636Z,39.90
2023-01-19T23:14:55.590Z,39.80
2023-01-19T23:17:22.557Z,39.80
2023-01-19T23:19:49.467Z,39.80
2023-01-19T23:22:16.489Z,39.70
2023-01-19T23:24:43.384Z,39.80
2023-01-19T23:27:11.981Z,39.80
2023-01-19T23:29:38.897Z,39.70
2023-01-19T23:32:05.925Z,39.70
2023-01-19T23:34:32.856Z,39.70
2023-01-19T23:36:59.793Z,39.70
2023-01-19T23:39:26.803Z,39.70
2023-01-19T23:41:53.874Z,39.70
2023-01-19T23:44:20.811Z,39.60
2023-01-19T23:46:48.525Z,39.70
2023-01-19T23:49:15.483Z,39.60
2023-01-19T23:51:42.457Z,39.70
2023-01-19T23:54:09.375Z,39.60
2023-01-19T23:56:37.364Z,39.60
2023-01-19T23:59:05.817Z,39.60
